sensor_id;sensor_type;location;lat;lon;timestamp;pressure;altitude;pressure_sealevel;temperature;humidity
31337;BME280;22846;42.654;23.314;2023-11-21T00:01:56;94320.50;;;24.84;48.94
31337;BME280;22846;42.654;23.314;2023-11-21T00:04:22;94298.84;;;24.68;48.36
31337;BME280;22846;42.654;23.314;2023-11-21T00:06:48;94320.50;;;24.84;48.88
31337;BME280;22846;42.654;23.314;2023-11-21T00:09:14;94315.28;;;24.77;48.65
31337;BME280;22846;42.654;23.314;2023-11-21T00:11:44;94328.38;;;24.82;48.93
31337;BME280;22846;42.654;23.314;2023-11-21T00:14:11;94299.44;;;24.63;48.00
31337;BME280;22846;42.654;23.314;2023-11-21T00:16:36;94329.59;;;24.81;48.42
31337;BME280;22846;42.654;23.314;2023-11-21T00:19:02;94326.53;;;24.79;49.01
31337;BME280;22846;42.654;23.314;2023-11-21T00:21:27;94327.75;;;24.78;48.11
31337;BME280;22846;42.654;23.314;2023-11-21T00:23:52;94304.00;;;24.66;48.71
31337;BME280;22846;42.654;23.314;2023-11-21T00:26:18;94307.88;;;24.77;49.21
31337;BME280;22846;42.654;23.314;2023-11-21T00:28:44;94306.28;;;24.68;48.67
31337;BME280;22846;42.654;23.314;2023-11-21T00:31:10;94297.63;;;24.69;48.52
31337;BME280;22846;42.654;23.314;2023-11-21T00:33:37;94306.78;;;24.75;49.04
31337;BME280;22846;42.654;23.314;2023-11-21T00:36:02;94284.69;;;24.61;48.82
31337;BME280;22846;42.654;23.314;2023-11-21T00:38:28;94262.69;;;24.43;48.89
31337;BME280;22846;42.654;23.314;2023-11-21T00:40:53;94308.56;;;24.69;49.22
31337;BME280;22846;42.654;23.314;2023-11-21T00:43:22;94299.28;;;24.67;48.96
31337;BME280;22846;42.654;23.314;2023-11-21T00:45:48;94296.25;;;24.65;49.05
31337;BME280;22846;42.654;23.314;2023-11-21T00:48:14;94315.56;;;24.70;48.88
31337;BME280;22846;42.654;23.314;2023-11-21T00:50:40;94319.50;;;24.69;49.03
31337;BME280;22846;42.654;23.314;2023-11-21T00:53:05;94302.63;;;24.62;48.47
31337;BME280;22846;42.654;23.314;2023-11-21T00:55:32;94304.31;;;24.68;49.16
31337;BME280;22846;42.654;23.314;2023-11-21T00:57:58;94303.56;;;24.68;48.83
31337;BME280;22846;42.654;23.314;2023-11-21T01:00:23;94292.88;;;24.61;49.06
31337;BME280;22846;42.654;23.314;2023-11-21T01:02:49;94294.56;;;24.67;48.83
31337;BME280;22846;42.654;23.314;2023-11-21T01:05:14;94300.81;;;24.68;49.02
31337;BME280;22846;42.654;23.314;2023-11-21T01:07:40;94303.56;;;24.68;48.91
31337;BME280;22846;42.654;23.314;2023-11-21T01:10:05;94284.81;;;24.57;48.60
31337;BME280;22846;42.654;23.314;2023-11-21T01:12:34;94269.72;;;24.44;49.03
31337;BME280;22846;42.654;23.314;2023-11-21T01:15:01;94295.81;;;24.66;49.08
31337;BME280;22846;42.654;23.314;2023-11-21T01:17:26;94272.94;;;24.51;48.96
31337;BME280;22846;42.654;23.314;2023-11-21T01:19:52;94285.25;;;24.56;49.10
31337;BME280;22846;42.654;23.314;2023-11-21T01:22:17;94298.03;;;24.59;49.18
31337;BME280;22846;42.654;23.314;2023-11-21T01:24:47;94296.63;;;24.54;48.74
31337;BME280;22846;42.654;23.314;2023-11-21T01:27:13;94312.34;;;24.63;48.96
31337;BME280;22846;42.654;23.314;2023-11-21T01:29:38;94298.78;;;24.59;48.98
31337;BME280;22846;42.654;23.314;2023-11-21T01:32:04;94306.88;;;24.63;48.51
31337;BME280;22846;42.654;23.314;2023-11-21T01:34:29;94292.25;;;24.57;48.70
31337;BME280;22846;42.654;23.314;2023-11-21T01:36:55;94292.25;;;24.57;49.28
31337;BME280;22846;42.654;23.314;2023-11-21T01:39:21;94275.38;;;24.49;49.35
31337;BME280;22846;42.654;23.314;2023-11-21T01:41:50;94291.16;;;24.54;49.18
31337;BME280;22846;42.654;23.314;2023-11-21T01:44:16;94305.47;;;24.58;48.58
31337;BME280;22846;42.654;23.314;2023-11-21T01:46:42;94277.69;;;24.38;48.88
31337;BME280;22846;42.654;23.314;2023-11-21T01:49:09;94272.53;;;24.40;48.86
31337;BME280;22846;42.654;23.314;2023-11-21T01:51:38;94289.63;;;24.53;49.16
31337;BME280;22846;42.654;23.314;2023-11-21T01:54:04;94295.75;;;24.57;48.90
31337;BME280;22846;42.654;23.314;2023-11-21T01:56:30;94257.44;;;24.27;48.88
31337;BME280;22846;42.654;23.314;2023-11-21T01:58:57;94293.91;;;24.54;48.79
31337;BME280;22846;42.654;23.314;2023-11-21T02:01:22;94279.22;;;24.39;49.43
31337;BME280;22846;42.654;23.314;2023-11-21T02:03:48;94270.25;;;24.39;48.79
31337;BME280;22846;42.654;23.314;2023-11-21T02:06:13;94278.75;;;24.41;49.21
31337;BME280;22846;42.654;23.314;2023-11-21T02:08:39;94297.50;;;24.51;48.73
31337;BME280;22846;42.654;23.314;2023-11-21T02:11:05;94297.97;;;24.50;48.96
31337;BME280;22846;42.654;23.314;2023-11-21T02:13:31;94300.69;;;24.50;48.93
31337;BME280;22846;42.654;23.314;2023-11-21T02:15:58;94279.22;;;24.39;48.91
31337;BME280;22846;42.654;23.314;2023-11-21T02:18:23;94284.91;;;24.45;48.90
31337;BME280;22846;42.654;23.314;2023-11-21T02:20:49;94276.03;;;24.41;48.74
31337;BME280;22846;42.654;23.314;2023-11-21T02:23:33;94288.38;;;24.45;48.96
31337;BME280;22846;42.654;23.314;2023-11-21T02:25:58;94272.69;;;24.37;48.82
31337;BME280;22846;42.654;23.314;2023-11-21T02:28:24;94274.00;;;24.32;48.83
31337;BME280;22846;42.654;23.314;2023-11-21T02:30:53;94273.09;;;24.35;48.56
31337;BME280;22846;42.654;23.314;2023-11-21T02:33:23;94271.16;;;24.36;48.50
31337;BME280;22846;42.654;23.314;2023-11-21T02:35:48;94261.25;;;24.29;49.01
31337;BME280;22846;42.654;23.314;2023-11-21T02:38:14;94264.41;;;24.28;49.19
31337;BME280;22846;42.654;23.314;2023-11-21T02:40:41;94276.91;;;24.38;48.88
31337;BME280;22846;42.654;23.314;2023-11-21T02:43:07;94290.78;;;24.43;49.02
31337;BME280;22846;42.654;23.314;2023-11-21T02:45:32;94267.03;;;24.31;48.72
31337;BME280;22846;42.654;23.314;2023-11-21T02:47:58;94256.22;;;24.28;48.85
31337;BME280;22846;42.654;23.314;2023-11-21T02:50:24;94270.03;;;24.33;48.63
31337;BME280;22846;42.654;23.314;2023-11-21T02:52:49;94261.69;;;24.28;49.07
31337;BME280;22846;42.654;23.314;2023-11-21T02:55:15;94270.94;;;24.30;49.00
31337;BME280;22846;42.654;23.314;2023-11-21T02:57:40;94280.75;;;24.40;49.15
31337;BME280;22846;42.654;23.314;2023-11-21T03:00:06;94261.03;;;24.24;49.25
31337;BME280;22846;42.654;23.314;2023-11-21T03:02:33;94262.25;;;24.23;48.87
31337;BME280;22846;42.654;23.314;2023-11-21T03:05:02;94238.25;;;24.18;48.48
31337;BME280;22846;42.654;23.314;2023-11-21T03:07:27;94266.38;;;24.27;48.90
31337;BME280;22846;42.654;23.314;2023-11-21T03:09:52;94267.97;;;24.37;49.34
31337;BME280;22846;42.654;23.314;2023-11-21T03:12:18;94256.78;;;24.23;49.17
31337;BME280;22846;42.654;23.314;2023-11-21T03:14:44;94269.44;;;24.29;48.87
31337;BME280;22846;42.654;23.314;2023-11-21T03:17:10;94268.09;;;24.34;48.96
31337;BME280;22846;42.654;23.314;2023-11-21T03:19:36;94273.09;;;24.35;48.90
31337;BME280;22846;42.654;23.314;2023-11-21T03:22:02;94261.16;;;24.20;49.17
31337;BME280;22846;42.654;23.314;2023-11-21T03:24:30;94292.22;;;24.35;49.37
31337;BME280;22846;42.654;23.314;2023-11-21T03:26:56;94279.84;;;24.22;48.93
31337;BME280;22846;42.654;23.314;2023-11-21T03:29:21;94296.16;;;24.34;49.12
31337;BME280;22846;42.654;23.314;2023-11-21T03:31:47;94281.50;;;24.19;48.45
31337;BME280;22846;42.654;23.314;2023-11-21T03:34:23;94296.28;;;24.31;49.11
31337;BME280;22846;42.654;23.314;2023-11-21T03:36:48;94259.91;;;24.12;49.10
31337;BME280;22846;42.654;23.314;2023-11-21T03:39:13;94277.56;;;24.20;49.33
31337;BME280;22846;42.654;23.314;2023-11-21T03:41:39;94292.34;;;24.32;49.33
31337;BME280;22846;42.654;23.314;2023-11-21T03:44:04;94276.97;;;24.25;49.27
31337;BME280;22846;42.654;23.314;2023-11-21T03:46:31;94272.09;;;24.20;49.43
31337;BME280;22846;42.654;23.314;2023-11-21T03:48:57;94271.09;;;24.27;48.57
31337;BME280;22846;42.654;23.314;2023-11-21T03:51:22;94267.16;;;24.28;49.04
31337;BME280;22846;42.654;23.314;2023-11-21T03:53:47;94265.63;;;24.27;48.67
31337;BME280;22846;42.654;23.314;2023-11-21T03:56:14;94275.63;;;24.30;49.14
31337;BME280;22846;42.654;23.314;2023-11-21T03:58:39;94250.38;;;24.17;49.19
31337;BME280;22846;42.654;23.314;2023-11-21T04:01:05;94252.66;;;24.18;48.95
31337;BME280;22846;42.654;23.314;2023-11-21T04:03:30;94262.44;;;24.28;49.21
31337;BME280;22846;42.654;23.314;2023-11-21T04:05:56;94256.66;;;24.26;49.07
31337;BME280;22846;42.654;23.314;2023-11-21T04:08:22;94234.88;;;24.14;48.92
31337;BME280;22846;42.654;23.314;2023-11-21T04:10:47;94259.38;;;24.26;48.73
31337;BME280;22846;42.654;23.314;2023-11-21T04:13:13;94264.09;;;24.26;49.25
31337;BME280;22846;42.654;23.314;2023-11-21T04:15:39;94248.28;;;24.21;49.16
31337;BME280;22846;42.654;23.314;2023-11-21T04:18:04;94246.00;;;24.19;49.01
31337;BME280;22846;42.654;23.314;2023-11-21T04:20:30;94253.31;;;24.22;48.83
31337;BME280;22846;42.654;23.314;2023-11-21T04:22:55;94242.31;;;24.13;49.08
31337;BME280;22846;42.654;23.314;2023-11-21T04:25:21;94240.47;;;24.10;49.02
31337;BME280;22846;42.654;23.314;2023-11-21T04:27:48;94242.88;;;24.08;48.77
31337;BME280;22846;42.654;23.314;2023-11-21T04:30:14;94255.38;;;24.18;48.93
31337;BME280;22846;42.654;23.314;2023-11-21T04:32:40;94265.44;;;24.21;48.83
31337;BME280;22846;42.654;23.314;2023-11-21T04:35:07;94254.00;;;24.14;48.90
31337;BME280;22846;42.654;23.314;2023-11-21T04:37:34;94249.59;;;24.16;48.76
31337;BME280;22846;42.654;23.314;2023-11-21T04:39:59;94241.03;;;24.05;48.89
31337;BME280;22846;42.654;23.314;2023-11-21T04:42:25;94250.50;;;24.13;49.02
31337;BME280;22846;42.654;23.314;2023-11-21T04:44:50;94260.22;;;24.14;49.01
31337;BME280;22846;42.654;23.314;2023-11-21T04:47:18;94262.97;;;24.14;48.86
31337;BME280;22846;42.654;23.314;2023-11-21T04:49:46;94268.28;;;24.18;49.33
31337;BME280;22846;42.654;23.314;2023-11-21T04:52:14;94219.63;;;23.83;49.30
31337;BME280;22846;42.654;23.314;2023-11-21T04:54:39;94264.59;;;24.12;49.02
31337;BME280;22846;42.654;23.314;2023-11-21T04:57:05;94266.44;;;24.15;48.75
31337;BME280;22846;42.654;23.314;2023-11-21T04:59:32;94268.72;;;24.16;48.82
31337;BME280;22846;42.654;23.314;2023-11-21T05:01:58;94262.22;;;24.01;49.03
31337;BME280;22846;42.654;23.314;2023-11-21T05:04:25;94268.50;;;24.11;48.67
31337;BME280;22846;42.654;23.314;2023-11-21T05:06:52;94267.44;;;24.08;48.80
31337;BME280;22846;42.654;23.314;2023-11-21T05:09:17;94283.28;;;24.13;48.97
31337;BME280;22846;42.654;23.314;2023-11-21T05:11:43;94259.25;;;24.08;48.85
31337;BME280;22846;42.654;23.314;2023-11-21T05:14:08;94242.25;;;24.04;48.75
31337;BME280;22846;42.654;23.314;2023-11-21T05:16:34;94259.91;;;24.12;47.90
31337;BME280;22846;42.654;23.314;2023-11-21T05:19:00;94262.19;;;24.14;48.19
31337;BME280;22846;42.654;23.314;2023-11-21T05:21:29;94265.56;;;24.18;47.87
31337;BME280;22846;42.654;23.314;2023-11-21T05:23:57;94232.06;;;24.26;48.79
31337;BME280;22846;42.654;23.314;2023-11-21T05:26:22;94224.41;;;24.34;49.01
31337;BME280;22846;42.654;23.314;2023-11-21T05:28:48;94246.56;;;24.57;48.93
31337;BME280;22846;42.654;23.314;2023-11-21T05:31:14;94242.31;;;24.56;48.71
31337;BME280;22846;42.654;23.314;2023-11-21T05:33:40;94260.44;;;24.63;48.17
31337;BME280;22846;42.654;23.314;2023-11-21T05:36:07;94272.19;;;24.81;48.17
31337;BME280;22846;42.654;23.314;2023-11-21T05:38:33;94260.81;;;24.82;48.27
31337;BME280;22846;42.654;23.314;2023-11-21T05:40:59;94269.38;;;24.93;47.46
31337;BME280;22846;42.654;23.314;2023-11-21T05:43:24;94267.44;;;25.03;47.13
31337;BME280;22846;42.654;23.314;2023-11-21T05:45:50;94265.78;;;25.05;46.91
31337;BME280;22846;42.654;23.314;2023-11-21T05:48:15;94278.78;;;25.23;46.82
31337;BME280;22846;42.654;23.314;2023-11-21T05:50:41;94272.09;;;25.24;46.84
31337;BME280;22846;42.654;23.314;2023-11-21T05:53:06;94256.31;;;25.28;46.68
31337;BME280;22846;42.654;23.314;2023-11-21T05:55:32;94269.13;;;25.40;46.43
31337;BME280;22846;42.654;23.314;2023-11-21T05:57:58;94267.00;;;25.44;46.59
31337;BME280;22846;42.654;23.314;2023-11-21T06:00:23;94268.53;;;25.45;46.29
31337;BME280;22846;42.654;23.314;2023-11-21T06:02:52;94264.56;;;25.46;46.39
31337;BME280;22846;42.654;23.314;2023-11-21T06:05:22;94269.31;;;25.54;45.89
31337;BME280;22846;42.654;23.314;2023-11-21T06:07:55;94271.16;;;25.57;46.11
31337;BME280;22846;42.654;23.314;2023-11-21T06:10:23;94252.56;;;25.52;45.90
31337;BME280;22846;42.654;23.314;2023-11-21T06:12:49;94260.50;;;25.59;45.42
31337;BME280;22846;42.654;23.314;2023-11-21T06:15:15;94276.63;;;25.66;45.48
31337;BME280;22846;42.654;23.314;2023-11-21T06:17:42;94287.13;;;25.67;45.43
31337;BME280;22846;42.654;23.314;2023-11-21T06:20:09;94294.56;;;25.67;45.41
31337;BME280;22846;42.654;23.314;2023-11-21T06:22:36;94278.03;;;25.70;45.23
31337;BME280;22846;42.654;23.314;2023-11-21T06:25:02;94284.25;;;25.71;45.52
31337;BME280;22846;42.654;23.314;2023-11-21T06:27:29;94284.84;;;25.66;45.36
31337;BME280;22846;42.654;23.314;2023-11-21T06:29:55;94281.47;;;25.62;44.91
31337;BME280;22846;42.654;23.314;2023-11-21T06:32:21;94283.91;;;25.60;45.06
31337;BME280;22846;42.654;23.314;2023-11-21T06:34:47;94278.72;;;25.53;45.30
31337;BME280;22846;42.654;23.314;2023-11-21T06:37:13;94290.72;;;25.56;45.15
31337;BME280;22846;42.654;23.314;2023-11-21T06:39:38;94298.19;;;25.55;45.50
31337;BME280;22846;42.654;23.314;2023-11-21T06:42:04;94307.00;;;25.59;45.20
31337;BME280;22846;42.654;23.314;2023-11-21T06:44:29;94297.72;;;25.57;45.43
31337;BME280;22846;42.654;23.314;2023-11-21T06:46:55;94303.53;;;25.59;45.43
31337;BME280;22846;42.654;23.314;2023-11-21T06:49:20;94312.06;;;25.61;45.17
31337;BME280;22846;42.654;23.314;2023-11-21T06:51:45;94286.91;;;25.44;45.39
31337;BME280;22846;42.654;23.314;2023-11-21T06:54:11;94307.31;;;25.52;45.56
31337;BME280;22846;42.654;23.314;2023-11-21T06:56:36;94310.66;;;25.56;45.11
31337;BME280;22846;42.654;23.314;2023-11-21T06:59:04;94304.72;;;25.58;45.13
31337;BME280;22846;42.654;23.314;2023-11-21T07:01:30;94307.78;;;25.60;45.43
31337;BME280;22846;42.654;23.314;2023-11-21T07:03:59;94307.47;;;25.58;45.30
31337;BME280;22846;42.654;23.314;2023-11-21T07:06:24;94294.69;;;25.55;45.30
31337;BME280;22846;42.654;23.314;2023-11-21T07:08:50;94300.78;;;25.59;44.83
31337;BME280;22846;42.654;23.314;2023-11-21T07:11:15;94311.44;;;25.65;45.25
31337;BME280;22846;42.654;23.314;2023-11-21T07:13:40;94293.94;;;25.54;45.15
31337;BME280;22846;42.654;23.314;2023-11-21T07:16:06;94300.19;;;25.63;45.33
31337;BME280;22846;42.654;23.314;2023-11-21T07:18:32;94293.19;;;25.62;45.21
31337;BME280;22846;42.654;23.314;2023-11-21T07:20:57;94293.19;;;25.62;45.01
31337;BME280;22846;42.654;23.314;2023-11-21T07:23:24;94290.16;;;25.61;45.20
31337;BME280;22846;42.654;23.314;2023-11-21T07:25:49;94299.28;;;25.66;45.00
31337;BME280;22846;42.654;23.314;2023-11-21T07:28:14;94301.56;;;25.68;44.90
31337;BME280;22846;42.654;23.314;2023-11-21T07:30:40;94300.19;;;25.63;45.06
31337;BME280;22846;42.654;23.314;2023-11-21T07:33:05;94287.72;;;25.62;44.85
31337;BME280;22846;42.654;23.314;2023-11-21T07:35:32;94295.91;;;25.62;44.91
31337;BME280;22846;42.654;23.314;2023-11-21T07:37:57;94294.72;;;25.63;44.74
31337;BME280;22846;42.654;23.314;2023-11-21T07:40:23;94303.88;;;25.69;44.66
31337;BME280;22846;42.654;23.314;2023-11-21T07:42:48;94303.41;;;25.71;44.83
31337;BME280;22846;42.654;23.314;2023-11-21T07:45:15;94301.41;;;25.71;44.75
31337;BME280;22846;42.654;23.314;2023-11-21T07:47:40;94306.88;;;25.71;44.85
31337;BME280;22846;42.654;23.314;2023-11-21T07:50:06;94300.06;;;25.76;44.83
31337;BME280;22846;42.654;23.314;2023-11-21T07:52:32;94292.66;;;25.76;44.61
31337;BME280;22846;42.654;23.314;2023-11-21T07:54:58;94300.66;;;25.71;44.58
31337;BME280;22846;42.654;23.314;2023-11-21T07:57:24;94281.97;;;25.69;44.70
31337;BME280;22846;42.654;23.314;2023-11-21T07:59:49;94282.41;;;25.68;44.75
31337;BME280;22846;42.654;23.314;2023-11-21T08:02:15;94283.66;;;25.76;44.77
31337;BME280;22846;42.654;23.314;2023-11-21T08:04:42;94277.09;;;25.73;44.37
31337;BME280;22846;42.654;23.314;2023-11-21T08:07:09;94279.72;;;25.77;44.67
31337;BME280;22846;42.654;23.314;2023-11-21T08:09:36;94279.06;;;25.73;44.53
31337;BME280;22846;42.654;23.314;2023-11-21T08:12:01;94285.81;;;25.81;44.59
31337;BME280;22846;42.654;23.314;2023-11-21T08:14:28;94281.56;;;25.80;44.84
31337;BME280;22846;42.654;23.314;2023-11-21T08:16:53;94258.84;;;25.62;44.57
31337;BME280;22846;42.654;23.314;2023-11-21T08:19:23;94290.78;;;25.73;44.64
31337;BME280;22846;42.654;23.314;2023-11-21T08:21:51;94264.31;;;25.62;44.74
31337;BME280;22846;42.654;23.314;2023-11-21T08:24:17;94281.56;;;25.80;45.31
31337;BME280;22846;42.654;23.314;2023-11-21T08:26:42;94268.41;;;25.75;45.21
31337;BME280;22846;42.654;23.314;2023-11-21T08:29:08;94251.84;;;25.61;45.57
31337;BME280;22846;42.654;23.314;2023-11-21T08:31:33;94267.06;;;25.70;45.47
31337;BME280;22846;42.654;23.314;2023-11-21T08:33:59;94260.97;;;25.66;45.71
31337;BME280;22846;42.654;23.314;2023-11-21T08:36:28;94252.13;;;25.62;41.88
31337;BME280;22846;42.654;23.314;2023-11-21T08:38:53;94269.88;;;25.40;32.15
31337;BME280;22846;42.654;23.314;2023-11-21T08:41:18;94241.00;;;25.00;39.23
31337;BME280;22846;42.654;23.314;2023-11-21T08:43:49;94264.19;;;24.86;42.55
31337;BME280;22846;42.654;23.314;2023-11-21T08:46:15;94263.50;;;25.04;42.49
31337;BME280;22846;42.654;23.314;2023-11-21T08:48:40;94267.81;;;25.14;42.87
31337;BME280;22846;42.654;23.314;2023-11-21T08:51:06;94255.53;;;25.18;43.63
31337;BME280;22846;42.654;23.314;2023-11-21T08:53:32;94270.75;;;25.28;43.26
31337;BME280;22846;42.654;23.314;2023-11-21T08:55:58;94256.03;;;25.26;42.68
31337;BME280;22846;42.654;23.314;2023-11-21T08:58:25;94255.25;;;25.34;41.51
31337;BME280;22846;42.654;23.314;2023-11-21T09:00:50;94242.06;;;25.33;40.69
31337;BME280;22846;42.654;23.314;2023-11-21T09:03:16;94225.31;;;25.31;41.32
31337;BME280;22846;42.654;23.314;2023-11-21T09:05:42;94243.28;;;25.41;41.41
31337;BME280;22846;42.654;23.314;2023-11-21T09:08:07;94222.16;;;25.41;41.24
31337;BME280;22846;42.654;23.314;2023-11-21T09:10:34;94215.19;;;25.40;41.78
31337;BME280;22846;42.654;23.314;2023-11-21T09:13:02;94196.44;;;25.30;41.38
31337;BME280;22846;42.654;23.314;2023-11-21T09:15:27;94212.75;;;25.51;41.28
31337;BME280;22846;42.654;23.314;2023-11-21T09:17:53;94193.28;;;25.40;41.50
31337;BME280;22846;42.654;23.314;2023-11-21T09:20:18;94203.00;;;25.41;41.66
31337;BME280;22846;42.654;23.314;2023-11-21T09:22:48;94158.31;;;25.26;41.55
31337;BME280;22846;42.654;23.314;2023-11-21T09:25:14;94170.16;;;25.41;41.78
31337;BME280;22846;42.654;23.314;2023-11-21T09:27:40;94168.78;;;25.28;42.16
31337;BME280;22846;42.654;23.314;2023-11-21T09:30:07;94170.47;;;25.43;42.05
31337;BME280;22846;42.654;23.314;2023-11-21T09:32:36;94165.66;;;25.56;42.01
31337;BME280;22846;42.654;23.314;2023-11-21T09:35:03;94126.38;;;25.32;42.17
31337;BME280;22846;42.654;23.314;2023-11-21T09:37:29;94113.81;;;25.35;42.08
31337;BME280;22846;42.654;23.314;2023-11-21T09:39:55;94121.09;;;25.47;42.50
31337;BME280;22846;42.654;23.314;2023-11-21T09:42:28;94158.19;;;25.74;42.50
31337;BME280;22846;42.654;23.314;2023-11-21T09:45:05;94156.66;;;25.73;42.46
31337;BME280;22846;42.654;23.314;2023-11-21T09:47:38;94133.88;;;25.67;42.46
31337;BME280;22846;42.654;23.314;2023-11-21T09:50:06;94082.19;;;25.43;42.92
31337;BME280;22846;42.654;23.314;2023-11-21T09:52:44;94110.91;;;25.74;42.84
31337;BME280;22846;42.654;23.314;2023-11-21T09:55:13;94119.13;;;25.83;42.87
31337;BME280;22846;42.654;23.314;2023-11-21T09:57:41;94098.31;;;25.76;42.59
31337;BME280;22846;42.654;23.314;2023-11-21T10:00:08;94095.88;;;25.78;42.97
31337;BME280;22846;42.654;23.314;2023-11-21T10:02:37;94104.97;;;25.84;42.73
31337;BME280;22846;42.654;23.314;2023-11-21T10:05:04;94094.78;;;25.85;42.57
31337;BME280;22846;42.654;23.314;2023-11-21T10:07:31;94104.19;;;25.93;42.85
31337;BME280;22846;42.654;23.314;2023-11-21T10:09:59;94091.88;;;25.88;43.02
31337;BME280;22846;42.654;23.314;2023-11-21T10:12:26;94094.75;;;25.94;43.20
31337;BME280;22846;42.654;23.314;2023-11-21T10:14:54;94092.66;;;25.89;43.01
31337;BME280;22846;42.654;23.314;2023-11-21T10:17:23;94077.91;;;25.86;43.34
31337;BME280;22846;42.654;23.314;2023-11-21T10:19:50;94079.28;;;25.91;43.20
31337;BME280;22846;42.654;23.314;2023-11-21T10:22:15;94079.09;;;25.94;43.31
31337;BME280;22846;42.654;23.314;2023-11-21T10:24:41;94066.34;;;25.91;43.29
31337;BME280;22846;42.654;23.314;2023-11-21T10:27:08;94072.84;;;25.94;43.36
31337;BME280;22846;42.654;23.314;2023-11-21T10:29:34;94071.50;;;25.89;43.39
31337;BME280;22846;42.654;23.314;2023-11-21T10:32:02;94070.91;;;25.85;43.39
31337;BME280;22846;42.654;23.314;2023-11-21T10:34:27;94061.94;;;25.76;43.39
31337;BME280;22846;42.654;23.314;2023-11-21T10:36:53;94076.72;;;25.78;43.87
31337;BME280;22846;42.654;23.314;2023-11-21T10:39:21;94040.34;;;25.60;43.57
31337;BME280;22846;42.654;23.314;2023-11-21T10:41:49;94062.84;;;25.73;43.53
31337;BME280;22846;42.654;23.314;2023-11-21T10:44:16;94061.63;;;25.74;43.53
31337;BME280;22846;42.654;23.314;2023-11-21T10:46:53;94055.84;;;25.72;43.72
31337;BME280;22846;42.654;23.314;2023-11-21T10:49:22;94058.00;;;25.77;43.76
31337;BME280;22846;42.654;23.314;2023-11-21T10:51:50;94051.91;;;25.73;43.86
31337;BME280;22846;42.654;23.314;2023-11-21T10:54:21;94064.09;;;25.81;43.85
31337;BME280;22846;42.654;23.314;2023-11-21T10:56:56;94033.50;;;25.73;43.60
31337;BME280;22846;42.654;23.314;2023-11-21T10:59:22;94045.53;;;25.76;43.67
31337;BME280;22846;42.654;23.314;2023-11-21T11:01:50;94035.34;;;25.67;43.19
31337;BME280;22846;42.654;23.314;2023-11-21T11:04:21;94038.50;;;25.75;43.74
31337;BME280;22846;42.654;23.314;2023-11-21T11:06:56;94017.72;;;25.60;43.76
31337;BME280;22846;42.654;23.314;2023-11-21T11:09:22;94025.44;;;25.70;43.83
31337;BME280;22846;42.654;23.314;2023-11-21T11:11:48;94034.72;;;25.72;43.42
31337;BME280;22846;42.654;23.314;2023-11-21T11:14:14;94032.28;;;25.74;43.83
31337;BME280;22846;42.654;23.314;2023-11-21T11:16:41;94022.53;;;25.73;43.70
31337;BME280;22846;42.654;23.314;2023-11-21T11:19:08;94021.50;;;25.71;43.21
31337;BME280;22846;42.654;23.314;2023-11-21T11:24:36;93977.59;;;25.57;43.27
31337;BME280;22846;42.654;23.314;2023-11-21T11:27:11;93991.38;;;25.71;43.41
31337;BME280;22846;42.654;23.314;2023-11-21T11:30:06;93992.44;;;25.73;43.79
31337;BME280;22846;42.654;23.314;2023-11-21T11:35:11;93988.22;;;25.63;43.63
31337;BME280;22846;42.654;23.314;2023-11-21T11:37:42;93992.78;;;25.66;43.80
31337;BME280;22846;42.654;23.314;2023-11-21T11:40:11;93989.13;;;25.69;43.96
31337;BME280;22846;42.654;23.314;2023-11-21T11:42:36;93980.91;;;25.69;43.76
31337;BME280;22846;42.654;23.314;2023-11-21T11:45:17;93992.78;;;25.75;43.89
31337;BME280;22846;42.654;23.314;2023-11-21T11:47:42;93993.22;;;25.74;43.88
31337;BME280;22846;42.654;23.314;2023-11-21T11:50:11;94000.50;;;25.77;43.87
31337;BME280;22846;42.654;23.314;2023-11-21T11:52:52;94004.59;;;25.72;43.79
31337;BME280;22846;42.654;23.314;2023-11-21T11:55:21;93997.50;;;25.66;44.13
31337;BME280;22846;42.654;23.314;2023-11-21T11:57:54;93993.97;;;25.65;44.20
31337;BME280;22846;42.654;23.314;2023-11-21T12:02:56;93983.94;;;25.71;43.94
31337;BME280;22846;42.654;23.314;2023-11-21T12:05:27;93987.91;;;25.70;43.96
31337;BME280;22846;42.654;23.314;2023-11-21T12:07:54;93983.38;;;25.59;44.11
31337;BME280;22846;42.654;23.314;2023-11-21T12:10:28;93997.78;;;25.68;44.39
31337;BME280;22846;42.654;23.314;2023-11-21T12:13:02;93998.88;;;25.62;44.12
31337;BME280;22846;42.654;23.314;2023-11-21T12:15:28;93994.78;;;25.57;44.47
31337;BME280;22846;42.654;23.314;2023-11-21T12:17:57;94003.09;;;25.62;44.20
31337;BME280;22846;42.654;23.314;2023-11-21T12:20:26;94009.19;;;25.66;43.98
31337;BME280;22846;42.654;23.314;2023-11-21T12:22:59;94000.06;;;25.69;44.26
31337;BME280;22846;42.654;23.314;2023-11-21T12:25:27;93989.56;;;25.68;43.99
31337;BME280;22846;42.654;23.314;2023-11-21T12:27:55;93989.56;;;25.68;44.04
31337;BME280;22846;42.654;23.314;2023-11-21T12:30:22;93995.19;;;25.64;44.23
31337;BME280;22846;42.654;23.314;2023-11-21T12:32:53;93995.84;;;25.60;44.44
31337;BME280;22846;42.654;23.314;2023-11-21T12:35:24;93997.03;;;25.67;44.55
31337;BME280;22846;42.654;23.314;2023-11-21T12:37:51;94011.28;;;25.71;44.40
31337;BME280;22846;42.654;23.314;2023-11-21T12:40:17;94000.34;;;25.71;44.34
31337;BME280;22846;42.654;23.314;2023-11-21T12:42:44;93987.28;;;25.66;44.10
31337;BME280;22846;42.654;23.314;2023-11-21T12:50:12;93973.00;;;25.62;44.17
31337;BME280;22846;42.654;23.314;2023-11-21T12:52:44;93976.34;;;25.66;44.32
31337;BME280;22846;42.654;23.314;2023-11-21T12:55:22;93966.28;;;25.72;44.08
31337;BME280;22846;42.654;23.314;2023-11-21T12:57:53;93963.41;;;25.67;44.04
31337;BME280;22846;42.654;23.314;2023-11-21T13:00:39;93959.00;;;25.69;44.31
31337;BME280;22846;42.654;23.314;2023-11-21T13:03:09;93976.66;;;25.68;44.19